Time;durP1;ratioP1;P1;durP2;ratioP2;P2;SDS_P1;SDS_P2;PMS_P1;PMS_P2;Temp;Humidity;BMP_temperature;BMP_pressure;BME280_temperature;BME280_humidity;BME280_pressure;Samples;Min_cycle;Max_cycle;Signal;HPM_P1;HPM_P2
2021/04/13 00:01:11;;;;;;;4.60;2.60;;;5.90;93.00;;;;;;4989046;28;20034;-77
2021/04/13 00:03:52;;;;;;;;;;;5.90;93.00;;;;;;4990669;28;20046;-75
2021/04/13 00:06:40;;;;;;;5.72;2.03;;;5.90;93.00;;;;;;4989759;28;19914;-75
2021/04/13 00:09:12;;;;;;;6.70;2.38;;;5.90;92.90;;;;;;4989135;28;20117;-75
2021/04/13 00:11:38;;;;;;;10.45;3.00;;;5.90;92.80;;;;;;4989685;28;20026;-76
2021/04/13 00:14:07;;;;;;;3.75;2.05;;;5.90;93.00;;;;;;4989829;28;20022;-75
2021/04/13 00:16:35;;;;;;;3.67;2.00;;;5.90;93.10;;;;;;4991294;28;20094;-75
2021/04/13 00:19:01;;;;;;;4.18;2.00;;;5.90;93.10;;;;;;5004720;28;20200;-76
2021/04/13 00:21:31;;;;;;;5.22;1.83;;;5.90;93.10;;;;;;4988434;28;20080;-75
2021/04/13 00:23:59;;;;;;;4.65;2.10;;;5.80;93.00;;;;;;4988625;28;20043;-76
2021/04/13 00:26:28;;;;;;;6.63;2.00;;;5.80;93.10;;;;;;4988888;28;20034;-74
2021/04/13 00:28:55;;;;;;;6.10;2.60;;;5.80;93.00;;;;;;4992122;28;20433;-76
2021/04/13 00:31:45;;;;;;;8.15;2.55;;;5.80;93.10;;;;;;4992750;28;20053;-76
2021/04/13 00:34:21;;;;;;;5.47;2.25;;;5.80;93.10;;;;;;4994006;28;20097;-76
2021/04/13 00:36:48;;;;;;;4.80;2.15;;;5.80;93.10;;;;;;4993897;28;20085;-76
2021/04/13 00:39:34;;;;;;;8.70;2.40;;;5.80;93.20;;;;;;4993621;28;20038;-76
2021/04/13 00:42:10;;;;;;;5.43;2.35;;;5.80;93.20;;;;;;4993461;28;20038;-76
2021/04/13 00:44:51;;;;;;;3.63;1.95;;;5.80;93.20;;;;;;4993511;28;20088;-76
2021/04/13 00:47:26;;;;;;;3.05;1.70;;;5.60;93.60;;;;;;4993316;28;20092;-75
2021/04/13 00:49:56;;;;;;;7.38;2.40;;;5.70;93.50;;;;;;4994014;28;20116;-76
2021/04/13 00:52:34;;;;;;;5.22;2.60;;;5.60;93.50;;;;;;4993875;28;20085;-76
2021/04/13 00:55:01;;;;;;;4.10;1.92;;;5.70;93.50;;;;;;4993454;28;20523;-75
2021/04/13 00:57:34;;;;;;;4.25;2.55;;;5.70;93.50;;;;;;4992192;28;20660;-75
2021/04/13 01:00:01;;;;;;;4.57;2.25;;;5.50;93.80;;;;;;4993098;28;20591;-76
2021/04/13 01:02:29;;;;;;;4.85;1.98;;;5.50;93.70;;;;;;4993125;28;20061;-76
2021/04/13 01:05:11;;;;;;;4.22;2.15;;;5.60;93.80;;;;;;4995048;28;20112;-75
2021/04/13 01:07:44;;;;;;;7.43;2.13;;;5.60;93.60;;;;;;4993389;28;20105;-75
2021/04/13 01:10:24;;;;;;;3.45;2.15;;;5.60;93.60;;;;;;4992209;28;20684;-75
2021/04/13 01:13:10;;;;;;;3.65;2.00;;;5.60;93.60;;;;;;4993138;28;20046;-75
2021/04/13 01:15:39;;;;;;;4.82;2.17;;;5.70;93.70;;;;;;4991916;28;20115;-76
2021/04/13 01:18:07;;;;;;;9.90;2.05;;;5.70;93.50;;;;;;4992252;28;20050;-75
2021/04/13 01:20:43;;;;;;;6.82;2.08;;;5.60;93.70;;;;;;4993005;28;20031;-76
2021/04/13 01:23:18;;;;;;;6.25;2.17;;;5.60;93.70;;;;;;4993019;28;20456;-76
2021/04/13 01:25:47;;;;;;;7.72;2.15;;;5.60;93.80;;;;;;4994412;28;20026;-76
2021/04/13 01:28:25;;;;;;;4.03;2.08;;;5.60;93.90;;;;;;4992834;28;20129;-78
2021/04/13 01:30:55;;;;;;;5.80;2.00;;;5.60;93.80;;;;;;4991550;28;20100;-76
2021/04/13 01:33:44;;;;;;;3.17;2.13;;;5.60;93.90;;;;;;4992756;28;20049;-77
2021/04/13 01:36:29;;;;;;;8.40;2.28;;;5.50;94.00;;;;;;5003766;28;20037;-75
2021/04/13 01:39:33;;;;;;;10.25;2.70;;;5.60;94.00;;;;;;5011319;28;20124;-75
2021/04/13 01:42:00;;;;;;;4.53;2.13;;;5.60;94.00;;;;;;4988561;28;20357;-74
2021/04/13 01:44:40;;;;;;;3.97;2.25;;;5.60;93.90;;;;;;5003396;28;20116;-75
2021/04/13 01:47:08;;;;;;;3.60;2.20;;;5.40;94.00;;;;;;5012221;28;20119;-76
2021/04/13 01:49:49;;;;;;;3.20;1.80;;;5.40;94.10;;;;;;5013477;28;20448;-74
2021/04/13 01:52:25;;;;;;;4.60;2.15;;;5.40;94.10;;;;;;5011256;28;20041;-75
2021/04/13 01:54:52;;;;;;;4.20;2.03;;;5.50;94.10;;;;;;5011558;28;20195;-75
2021/04/13 01:57:40;;;;;;;5.15;2.67;;;5.40;94.10;;;;;;5011733;28;20060;-75
2021/04/13 02:00:14;;;;;;;4.75;2.15;;;5.40;94.00;;;;;;5011788;28;20042;-77
2021/04/13 02:02:46;;;;;;;9.27;2.45;;;5.50;94.30;;;;;;5012159;28;20049;-76
2021/04/13 02:05:14;;;;;;;6.43;2.67;;;5.40;94.30;;;;;;5011607;28;20053;-76
2021/04/13 02:08:00;;;;;;;4.65;2.00;;;5.50;94.20;;;;;;5012269;28;20083;-76
2021/04/13 02:10:33;;;;;;;8.32;2.40;;;5.40;94.50;;;;;;5010617;28;20037;-77
2021/04/13 02:13:08;;;;;;;4.00;1.83;;;5.30;94.50;;;;;;5011903;28;20113;-77
2021/04/13 02:15:55;;;;;;;6.35;2.38;;;5.40;94.50;;;;;;5011314;28;20104;-75
2021/04/13 02:18:55;;;;;;;4.18;2.17;;;5.40;94.60;;;;;;5011321;28;20052;-76
2021/04/13 02:21:29;;;;;;;12.73;2.45;;;5.40;94.50;;;;;;4999643;28;20046;-75
2021/04/13 02:24:03;;;;;;;4.47;2.03;;;5.30;94.60;;;;;;5011201;28;20029;-75
2021/04/13 02:26:30;;;;;;;6.28;2.60;;;5.30;94.50;;;;;;5011753;28;20030;-75
2021/04/13 02:28:57;;;;;;;10.35;2.50;;;5.40;94.50;;;;;;5011919;28;20100;-75
2021/04/13 02:31:48;;;;;;;9.00;2.42;;;5.40;94.50;;;;;;5011281;28;20037;-77
2021/04/13 02:34:37;;;;;;;10.20;2.25;;;5.40;94.50;;;;;;5011179;28;20427;-75
2021/04/13 02:37:11;;;;;;;5.20;1.92;;;5.40;94.60;;;;;;5011083;28;20082;-76
2021/04/13 02:39:40;;;;;;;5.45;2.17;;;5.40;94.60;;;;;;5011053;28;20135;-75
2021/04/13 02:42:14;;;;;;;5.07;2.15;;;5.30;94.60;;;;;;5011203;28;20034;-74
2021/04/13 02:44:41;;;;;;;11.50;2.45;;;5.30;94.60;;;;;;5010903;28;20041;-75
2021/04/13 02:47:12;;;;;;;4.22;1.70;;;5.20;94.80;;;;;;5010205;28;20026;-75
2021/04/13 02:49:41;;;;;;;9.15;1.65;;;5.20;94.90;;;;;;5012611;28;20022;-75
2021/04/13 02:52:13;;;;;;;5.18;1.95;;;5.20;94.90;;;;;;5010639;28;20042;-76
2021/04/13 02:54:49;;;;;;;7.25;2.35;;;5.20;95.00;;;;;;5011079;28;20072;-76
2021/04/13 02:57:27;;;;;;;12.32;1.73;;;5.30;94.90;;;;;;5010704;28;20038;-75
2021/04/13 02:59:57;;;;;;;;;;;5.30;94.90;;;;;;5011424;28;20412;-75
2021/04/13 03:02:35;;;;;;;8.98;2.35;;;5.20;94.80;;;;;;5011034;28;19928;-75
2021/04/13 03:05:01;;;;;;;8.43;2.00;;;5.10;95.10;;;;;;5012103;28;20026;-76
2021/04/13 03:07:29;;;;;;;7.40;2.20;;;5.20;95.10;;;;;;5009711;28;20073;-76
2021/04/13 03:10:13;;;;;;;6.43;2.22;;;5.10;95.10;;;;;;5009370;28;20042;-77
2021/04/13 03:12:43;;;;;;;4.13;1.85;;;5.20;95.00;;;;;;5009098;28;20030;-76
2021/04/13 03:15:16;;;;;;;4.55;2.03;;;5.20;95.10;;;;;;5010633;28;20057;-76
2021/04/13 03:17:55;;;;;;;6.97;2.35;;;5.20;95.20;;;;;;5010565;28;20048;-76
2021/04/13 03:20:24;;;;;;;7.20;2.10;;;5.20;95.10;;;;;;5010426;28;20084;-76
2021/04/13 03:22:57;;;;;;;6.03;2.22;;;5.20;95.20;;;;;;5012029;28;20084;-76
2021/04/13 03:25:30;;;;;;;5.35;2.72;;;4.90;95.50;;;;;;5010182;28;20470;-76
2021/04/13 03:27:57;;;;;;;6.95;2.35;;;4.90;95.80;;;;;;5010129;28;20387;-74
2021/04/13 03:30:30;;;;;;;11.43;2.35;;;5.00;95.50;;;;;;5009370;28;20136;-76
2021/04/13 03:33:16;;;;;;;12.15;2.92;;;5.10;95.50;;;;;;5010275;28;20069;-75
2021/04/13 03:35:42;;;;;;;5.75;2.67;;;4.90;95.80;;;;;;5010350;28;20061;-73
2021/04/13 03:38:12;;;;;;;8.10;3.03;;;4.90;95.70;;;;;;5009004;28;20070;-75
2021/04/13 03:40:44;;;;;;;6.60;2.67;;;5.00;95.70;;;;;;5011800;28;20034;-76
2021/04/13 03:43:12;;;;;;;9.30;2.88;;;4.90;96.10;;;;;;5009966;28;20038;-75
2021/04/13 03:45:38;;;;;;;9.63;2.83;;;4.90;95.80;;;;;;5009934;28;20056;-74
2021/04/13 03:48:17;;;;;;;4.80;2.78;;;5.00;95.80;;;;;;5010078;28;20117;-74
2021/04/13 03:50:43;;;;;;;7.05;2.30;;;5.00;95.70;;;;;;5009036;28;20041;-75
2021/04/13 03:53:11;;;;;;;10.90;3.13;;;5.10;95.60;;;;;;5009427;28;20083;-74
2021/04/13 03:55:38;;;;;;;7.35;2.92;;;5.00;95.70;;;;;;5011467;28;20508;-74
2021/04/13 03:58:21;;;;;;;10.50;2.80;;;5.00;95.80;;;;;;5009548;28;20058;-75
2021/04/13 04:00:47;;;;;;;4.13;2.30;;;5.00;95.80;;;;;;5009875;28;20121;-75
2021/04/13 04:03:13;;;;;;;8.43;3.28;;;5.00;95.90;;;;;;5008366;28;20130;-75
2021/04/13 04:05:52;;;;;;;6.53;2.90;;;5.00;95.80;;;;;;5009295;28;20125;-74
2021/04/13 04:08:41;;;;;;;7.72;3.53;;;5.10;95.80;;;;;;5009699;28;20034;-76
2021/04/13 04:11:08;;;;;;;9.57;3.33;;;5.20;95.60;;;;;;5009503;28;20129;-75
2021/04/13 04:13:46;;;;;;;8.90;3.00;;;5.10;95.80;;;;;;5009845;28;20029;-76
2021/04/13 04:16:18;;;;;;;7.22;3.10;;;4.90;96.10;;;;;;5009562;28;20359;-76
2021/04/13 04:18:47;;;;;;;9.80;3.25;;;5.00;96.00;;;;;;5009356;28;20057;-75
2021/04/13 04:21:34;;;;;;;10.35;3.10;;;5.00;96.00;;;;;;5009617;28;20037;-76
2021/04/13 04:24:18;;;;;;;6.43;2.67;;;5.00;95.90;;;;;;5008429;28;20049;-77
2021/04/13 04:26:57;;;;;;;12.05;3.38;;;4.90;96.40;;;;;;5009503;28;20057;-74
2021/04/13 04:29:29;;;;;;;12.77;2.95;;;4.80;96.30;;;;;;5009471;28;20049;-75
2021/04/13 04:32:08;;;;;;;8.13;3.05;;;4.80;96.60;;;;;;5011468;28;20348;-75
2021/04/13 04:34:34;;;;;;;7.93;3.53;;;4.80;96.60;;;;;;5009826;28;20391;-75
2021/04/13 04:36:59;;;;;;;9.20;3.47;;;4.80;96.50;;;;;;5008948;28;20529;-75
2021/04/13 04:39:38;;;;;;;15.02;3.55;;;4.70;96.60;;;;;;5009251;28;20053;-75
2021/04/13 04:42:28;;;;;;;10.48;3.58;;;4.80;96.80;;;;;;5008419;28;20424;-74
2021/04/13 04:45:13;;;;;;;11.00;3.60;;;4.90;96.50;;;;;;5006500;28;20432;-74
2021/04/13 04:47:39;;;;;;;10.50;3.22;;;4.90;96.50;;;;;;5009312;28;20038;-75
2021/04/13 04:50:07;;;;;;;7.82;2.70;;;4.90;96.50;;;;;;5008943;28;20026;-75
2021/04/13 04:52:33;;;;;;;14.02;3.60;;;4.90;96.50;;;;;;5010766;28;20109;-75
2021/04/13 04:54:59;;;;;;;10.00;3.53;;;4.80;96.50;;;;;;5009158;28;20433;-74
2021/04/13 04:57:24;;;;;;;9.50;3.65;;;5.00;96.30;;;;;;5007972;28;20048;-75
2021/04/13 04:59:50;;;;;;;14.02;3.45;;;5.00;96.40;;;;;;5008480;28;20032;-75
2021/04/13 05:02:15;;;;;;;12.38;3.80;;;5.00;96.50;;;;;;5008222;28;20090;-74
2021/04/13 05:04:41;;;;;;;9.90;3.28;;;4.80;96.70;;;;;;5010734;28;20037;-75
2021/04/13 05:07:07;;;;;;;7.97;3.58;;;4.90;96.80;;;;;;5008934;28;20068;-75
2021/04/13 05:09:32;;;;;;;10.27;3.00;;;5.00;96.50;;;;;;5009230;28;20034;-75
2021/04/13 05:11:59;;;;;;;12.35;3.70;;;5.10;96.40;;;;;;5008969;28;20034;-76
2021/04/13 05:14:24;;;;;;;14.38;3.72;;;5.10;96.40;;;;;;5009239;28;20030;-76
2021/04/13 05:16:52;;;;;;;16.95;3.90;;;5.10;96.50;;;;;;5013389;28;20080;-76
2021/04/13 05:19:17;;;;;;;8.10;3.42;;;5.20;96.50;;;;;;5012834;28;20045;-76
2021/04/13 05:21:43;;;;;;;10.10;3.85;;;5.20;96.60;;;;;;5012195;28;20099;-75
2021/04/13 05:24:10;;;;;;;10.75;3.75;;;5.30;96.30;;;;;;5012487;28;20415;-75
2021/04/13 05:26:36;;;;;;;12.53;3.33;;;5.30;96.20;;;;;;5012272;28;20037;-75
2021/04/13 05:29:03;;;;;;;13.43;3.55;;;5.20;96.40;;;;;;5013034;28;20267;-75
2021/04/13 05:31:29;;;;;;;11.48;4.13;;;5.30;96.30;;;;;;5012955;28;20044;-75
2021/04/13 05:33:54;;;;;;;11.68;3.40;;;5.30;96.30;;;;;;5012450;28;20045;-73
2021/04/13 05:36:20;;;;;;;11.75;3.47;;;5.40;96.20;;;;;;5011090;28;20045;-74
2021/04/13 05:38:46;;;;;;;11.18;4.18;;;5.40;96.10;;;;;;5011793;28;20038;-75
2021/04/13 05:41:14;;;;;;;13.27;4.07;;;5.40;96.10;;;;;;5012108;28;20029;-74
2021/04/13 05:43:40;;;;;;;8.63;3.40;;;5.50;96.20;;;;;;5013627;28;20021;-75
2021/04/13 05:46:07;;;;;;;8.55;3.03;;;5.50;96.00;;;;;;5012285;28;20042;-73
2021/04/13 05:48:33;;;;;;;10.73;4.13;;;5.50;96.20;;;;;;5011888;28;20076;-74
2021/04/13 05:50:59;;;;;;;10.35;3.70;;;5.60;96.10;;;;;;5010762;28;20113;-74
2021/04/13 05:53:25;;;;;;;12.57;4.18;;;5.60;96.20;;;;;;5011571;28;20041;-74
2021/04/13 05:55:53;;;;;;;15.50;3.63;;;5.60;96.20;;;;;;5013551;28;20067;-73
2021/04/13 05:58:21;;;;;;;11.10;3.75;;;5.70;96.20;;;;;;5011559;28;20068;-73
2021/04/13 06:00:50;;;;;;;11.30;3.70;;;5.50;96.20;;;;;;5011700;28;20077;-73
2021/04/13 06:03:19;;;;;;;15.73;3.17;;;5.60;96.40;;;;;;5011677;28;20034;-74
2021/04/13 06:05:45;;;;;;;8.18;3.22;;;5.60;96.30;;;;;;5011643;28;20464;-75
2021/04/13 06:08:11;;;;;;;16.42;4.03;;;5.70;96.40;;;;;;5009788;28;20036;-76
2021/04/13 06:10:37;;;;;;;9.45;2.95;;;5.70;96.30;;;;;;5012965;28;20108;-76
2021/04/13 06:13:04;;;;;;;10.15;3.30;;;5.80;96.30;;;;;;5011292;28;20042;-74
2021/04/13 06:15:31;;;;;;;8.25;3.15;;;5.80;96.20;;;;;;5011525;28;20038;-73
2021/04/13 06:17:57;;;;;;;7.97;3.20;;;5.90;96.10;;;;;;5011213;28;20041;-75
2021/04/13 06:20:25;;;;;;;19.13;3.80;;;5.80;96.20;;;;;;5010234;28;20068;-74
2021/04/13 06:22:52;;;;;;;10.90;3.25;;;5.80;96.20;;;;;;5012584;28;20029;-74
2021/04/13 06:25:20;;;;;;;10.15;3.20;;;5.90;96.10;;;;;;5011118;28;20117;-75
2021/04/13 06:27:46;;;;;;;14.77;3.15;;;5.90;96.10;;;;;;5009185;28;20026;-73
2021/04/13 06:30:13;;;;;;;8.02;2.75;;;6.10;96.10;;;;;;5010481;28;20038;-74
2021/04/13 06:32:39;;;;;;;13.03;5.67;;;6.20;95.90;;;;;;5011380;28;20060;-75
2021/04/13 06:35:06;;;;;;;14.68;2.85;;;6.20;95.90;;;;;;5011306;28;20072;-74
2021/04/13 06:37:35;;;;;;;6.45;2.90;;;6.20;95.90;;;;;;5012206;28;20050;-74
2021/04/13 06:40:03;;;;;;;9.73;3.25;;;6.20;95.80;;;;;;5010692;28;20073;-75
2021/04/13 06:42:54;;;;;;;9.10;2.85;;;6.50;95.90;;;;;;5010540;28;20034;-75
2021/04/13 06:45:25;;;;;;;10.70;2.78;;;6.60;96.00;;;;;;5011027;28;20557;-75
2021/04/13 06:48:11;;;;;;;15.25;2.70;;;6.70;95.60;;;;;;5010543;28;20053;-75
2021/04/13 06:50:56;;;;;;;14.63;2.70;;;6.70;95.40;;;;;;5010768;28;20038;-73
2021/04/13 06:53:46;;;;;;;11.70;3.17;;;6.80;95.50;;;;;;5010577;28;22069;-72
2021/04/13 06:56:26;;;;;;;10.00;2.65;;;6.90;95.50;;;;;;5009353;28;20026;-73
2021/04/13 06:59:13;;;;;;;7.50;2.58;;;7.00;95.30;;;;;;5012247;28;20087;-71
2021/04/13 07:01:45;;;;;;;14.38;3.05;;;7.10;95.40;;;;;;5009991;28;20057;-73
2021/04/13 07:04:26;;;;;;;12.43;3.10;;;7.20;95.20;;;;;;5010194;28;20108;-74
2021/04/13 07:06:59;;;;;;;6.53;2.05;;;7.20;95.20;;;;;;5010535;28;20045;-75
2021/04/13 07:09:35;;;;;;;7.45;2.60;;;7.40;95.20;;;;;;5010055;28;20037;-77
2021/04/13 07:12:07;;;;;;;19.27;3.10;;;7.40;94.80;;;;;;5009751;28;20320;-73
2021/04/13 07:14:55;;;;;;;6.80;2.58;;;7.40;94.60;;;;;;5008896;28;20298;-74
2021/04/13 07:17:32;;;;;;;;;;;7.30;94.50;;;;;;5009517;28;20110;-76
2021/04/13 07:20:23;;;;;;;11.73;2.80;;;7.40;94.60;;;;;;5010928;28;19909;-75
2021/04/13 07:22:57;;;;;;;10.30;2.78;;;7.60;94.60;;;;;;5010119;28;20414;-76
2021/04/13 07:25:29;;;;;;;12.52;2.50;;;7.40;94.50;;;;;;5009218;28;20252;-76
2021/04/13 07:27:58;;;;;;;8.57;2.30;;;7.50;94.80;;;;;;5010313;28;20036;-75
2021/04/13 07:30:32;;;;;;;11.00;2.53;;;7.70;94.60;;;;;;5008490;28;20344;-73
2021/04/13 07:32:59;;;;;;;9.07;2.20;;;7.90;94.50;;;;;;5010221;28;20034;-74
2021/04/13 07:35:36;;;;;;;6.80;2.33;;;8.10;94.10;;;;;;5008485;28;20026;-75
2021/04/13 07:38:15;;;;;;;8.65;2.55;;;8.10;93.90;;;;;;5009846;28;20053;-75
2021/04/13 07:40:46;;;;;;;13.00;2.22;;;8.20;93.80;;;;;;5009062;28;20120;-75
2021/04/13 07:43:33;;;;;;;9.95;2.08;;;8.30;93.70;;;;;;5008783;28;20211;-74
2021/04/13 07:46:12;;;;;;;12.27;2.08;;;8.50;93.40;;;;;;5010003;28;20034;-78
2021/04/13 07:49:14;;;;;;;13.38;2.78;;;8.30;93.40;;;;;;5008344;28;20037;-76
2021/04/13 07:51:46;;;;;;;7.50;2.00;;;8.30;93.10;;;;;;5008745;28;20502;-76
2021/04/13 07:54:30;;;;;;;11.75;2.15;;;8.60;93.20;;;;;;5008571;28;20091;-75
2021/04/13 07:57:00;;;;;;;14.05;2.53;;;8.60;92.90;;;;;;5007681;28;20053;-75
2021/04/13 07:59:47;;;;;;;9.15;2.15;;;8.70;93.10;;;;;;5009673;28;20494;-76
2021/04/13 08:02:13;;;;;;;11.47;2.77;;;8.90;92.80;;;;;;5009728;28;20093;-77
2021/04/13 08:04:46;;;;;;;11.48;2.22;;;8.50;92.70;;;;;;5011316;28;20269;-77
2021/04/13 08:07:17;;;;;;;11.32;2.47;;;8.50;92.70;;;;;;5008569;28;20048;-75
2021/04/13 08:10:00;;;;;;;20.13;2.88;;;8.70;92.50;;;;;;5008204;28;20446;-75
2021/04/13 08:12:34;;;;;;;11.90;2.17;;;9.50;92.20;;;;;;5009925;28;20049;-76
2021/04/13 08:15:03;;;;;;;11.82;1.88;;;10.10;90.90;;;;;;5008452;28;20038;-75
2021/04/13 08:17:35;;;;;;;10.43;2.47;;;11.30;90.70;;;;;;5009196;28;20325;-75
2021/04/13 08:20:04;;;;;;;13.90;2.00;;;12.40;90.10;;;;;;5011028;28;20076;-75
2021/04/13 08:22:50;;;;;;;7.72;2.00;;;13.80;84.50;;;;;;5009602;28;20034;-75
2021/04/13 08:25:37;;;;;;;10.38;2.03;;;13.70;78.80;;;;;;5008791;28;20068;-75
2021/04/13 08:28:21;;;;;;;4.88;1.40;;;14.10;76.40;;;;;;5008210;28;20100;-74
2021/04/13 08:34:18;;;;;;;11.35;1.95;;;13.80;76.10;;;;;;5009263;28;20616;-74
2021/04/13 08:37:03;;;;;;;5.68;1.63;;;14.30;73.20;;;;;;5008880;28;20034;-75
2021/04/13 08:39:31;;;;;;;6.80;1.73;;;15.30;72.10;;;;;;5008593;28;20062;-75
2021/04/13 08:42:30;;;;;;;11.73;1.33;;;14.70;67.10;;;;;;5007853;28;20547;-74
2021/04/13 08:44:58;;;;;;;9.95;1.85;;;14.80;65.90;;;;;;5004749;28;20040;-74
2021/04/13 08:47:37;;;;;;;7.45;1.58;;;14.90;66.20;;;;;;5009382;28;20309;-75
2021/04/13 08:50:41;;;;;;;8.20;1.70;;;13.90;66.60;;;;;;5009396;28;20045;-76
2021/04/13 08:53:27;;;;;;;11.93;1.73;;;13.80;68.20;;;;;;5008994;28;20538;-74
2021/04/13 08:56:11;;;;;;;6.40;1.63;;;13.60;67.20;;;;;;5013331;28;20029;-75
2021/04/13 08:58:48;;;;;;;9.90;2.03;;;14.20;68.30;;;;;;5012529;28;20092;-74
2021/04/13 09:01:36;;;;;;;4.27;1.40;;;13.90;66.80;;;;;;5012749;28;20076;-72
2021/04/13 09:04:03;;;;;;;;;;;12.70;68.80;;;;;;5013096;28;20052;-72
2021/04/13 09:06:31;;;;;;;12.65;1.85;;;12.30;69.50;;;;;;5012792;28;19916;-73
2021/04/13 09:09:11;;;;;;;9.88;2.40;;;12.30;70.10;;;;;;5012642;28;20073;-71
2021/04/13 09:11:53;;;;;;;13.02;1.67;;;12.00;71.10;;;;;;5011357;28;20030;-77
2021/04/13 09:14:48;;;;;;;8.32;1.77;;;12.40;71.70;;;;;;5012780;28;20033;-78
2021/04/13 09:17:36;;;;;;;10.30;2.42;;;13.30;71.20;;;;;;5009130;28;20045;-77
2021/04/13 09:20:05;;;;;;;7.20;1.70;;;13.90;68.00;;;;;;5006499;28;20104;-75
2021/04/13 09:22:47;;;;;;;7.65;1.95;;;12.90;67.50;;;;;;5012515;28;20030;-77
2021/04/13 09:25:36;;;;;;;13.07;2.13;;;13.60;68.50;;;;;;5012193;28;20048;-76
2021/04/13 09:28:14;;;;;;;11.13;1.98;;;14.50;65.30;;;;;;5012212;28;20030;-73
2021/04/13 09:30:46;;;;;;;8.07;2.17;;;14.90;63.80;;;;;;5012040;28;20068;-74
2021/04/13 09:33:14;;;;;;;10.88;1.48;;;14.40;61.60;;;;;;5010900;28;20061;-74
2021/04/13 09:36:17;;;;;;;6.65;1.70;;;13.90;62.30;;;;;;5009069;28;20120;-72
2021/04/13 09:39:15;;;;;;;11.30;2.00;;;13.10;64.70;;;;;;5011134;28;20541;-76
2021/04/13 09:42:12;;;;;;;9.00;1.65;;;14.00;63.20;;;;;;5012139;28;20661;-76
2021/04/13 09:45:04;;;;;;;6.88;1.67;;;14.70;62.00;;;;;;5012450;28;20053;-76
2021/04/13 09:48:04;;;;;;;8.60;1.75;;;14.40;59.00;;;;;;5011152;28;20396;-77
2021/04/13 09:50:57;;;;;;;5.20;2.08;;;14.10;59.00;;;;;;5011226;28;20045;-72
2021/04/13 09:53:52;;;;;;;5.40;1.52;;;14.30;58.70;;;;;;5011918;28;20494;-72
2021/04/13 09:57:00;;;;;;;9.30;1.90;;;14.20;59.10;;;;;;5011288;28;20114;-73
2021/04/13 09:59:45;;;;;;;;;;;14.40;60.60;;;;;;5011516;28;20052;-74
2021/04/13 10:02:46;;;;;;;7.95;1.80;;;15.90;58.90;;;;;;5010675;28;19905;-73
2021/04/13 10:05:14;;;;;;;11.15;2.58;;;16.40;54.60;;;;;;5011338;28;20382;-72
2021/04/13 10:07:55;;;;;;;9.77;1.98;;;17.00;52.70;;;;;;5012330;28;20057;-76
2021/04/13 10:10:22;;;;;;;9.27;2.45;;;16.40;53.90;;;;;;5011452;28;20046;-77
2021/04/13 10:13:15;;;;;;;10.52;1.88;;;17.10;53.80;;;;;;5011485;28;20038;-76
2021/04/13 10:15:57;;;;;;;6.55;1.33;;;17.60;47.50;;;;;;5011293;28;20038;-72
2021/04/13 10:18:26;;;;;;;8.98;1.48;;;18.50;48.00;;;;;;5011225;28;20042;-74
2021/04/13 10:21:19;;;;;;;7.28;1.75;;;17.20;45.40;;;;;;5009932;28;20041;-74
2021/04/13 10:24:03;;;;;;;11.20;1.67;;;16.60;46.10;;;;;;5010976;28;20038;-76
2021/04/13 10:27:06;;;;;;;7.07;1.27;;;17.50;47.40;;;;;;5010715;28;20117;-78
2021/04/13 10:29:53;;;;;;;8.93;1.48;;;17.50;46.50;;;;;;5010288;28;20456;-77
2021/04/13 10:32:42;;;;;;;6.45;1.55;;;18.10;45.50;;;;;;5010849;28;20026;-77
2021/04/13 10:35:07;;;;;;;5.53;1.20;;;16.80;44.00;;;;;;5010431;28;20394;-76
2021/04/13 10:37:52;;;;;;;4.70;1.10;;;16.20;45.40;;;;;;5010778;28;20400;-77
2021/04/13 10:40:26;;;;;;;8.57;1.60;;;17.00;45.80;;;;;;5010287;28;20100;-78
2021/04/13 10:43:00;;;;;;;7.75;1.27;;;16.50;42.60;;;;;;5009187;28;20092;-77
2021/04/13 10:45:45;;;;;;;12.07;1.80;;;17.10;43.90;;;;;;5009704;28;20034;-77
2021/04/13 10:48:47;;;;;;;8.93;1.35;;;17.20;44.10;;;;;;5009927;28;20309;-75
2021/04/13 10:51:30;;;;;;;7.55;1.33;;;16.10;44.30;;;;;;5010452;28;20126;-75
2021/04/13 10:54:27;;;;;;;4.97;1.30;;;15.90;46.10;;;;;;5010405;28;20047;-75
2021/04/13 10:57:27;;;;;;;12.13;2.05;;;16.30;46.30;;;;;;5010060;28;20038;-74
2021/04/13 11:00:05;;;;;;;7.45;1.05;;;16.10;46.40;;;;;;5010368;28;20052;-73
2021/04/13 11:02:40;;;;;;;7.57;1.55;;;15.90;45.80;;;;;;5010419;28;20089;-74
2021/04/13 11:05:25;;;;;;;5.85;1.48;;;16.20;46.30;;;;;;5010075;28;20123;-74
2021/04/13 11:08:18;;;;;;;17.80;6.63;;;16.00;47.30;;;;;;5011720;28;20592;-74
2021/04/13 11:11:02;;;;;;;10.23;1.90;;;15.90;46.40;;;;;;5010269;28;20448;-74
2021/04/13 11:14:15;;;;;;;9.60;1.50;;;14.70;47.70;;;;;;5010078;28;20051;-75
2021/04/13 11:17:14;;;;;;;7.53;1.48;;;15.40;48.50;;;;;;4993801;28;20413;-75
2021/04/13 11:20:10;;;;;;;8.02;1.40;;;15.20;48.50;;;;;;5009026;28;20042;-74
2021/04/13 11:22:53;;;;;;;6.25;1.27;;;15.20;49.20;;;;;;5010283;28;20095;-75
2021/04/13 11:25:43;;;;;;;9.68;1.83;;;15.00;48.60;;;;;;5009922;28;20038;-78
2021/04/13 11:28:24;;;;;;;3.80;1.48;;;15.00;48.90;;;;;;5009656;28;20040;-75
2021/04/13 11:31:21;;;;;;;10.57;1.75;;;15.00;49.60;;;;;;5009810;28;20452;-75
2021/04/13 11:33:58;;;;;;;6.80;1.30;;;14.80;49.60;;;;;;5009674;28;20132;-74
2021/04/13 11:36:37;;;;;;;6.20;1.75;;;14.40;50.30;;;;;;5009329;28;20271;-74
2021/04/13 11:39:22;;;;;;;9.85;1.98;;;13.90;52.00;;;;;;5009864;28;20053;-75
2021/04/13 11:42:08;;;;;;;5.38;1.50;;;13.70;53.50;;;;;;5008411;28;20487;-75
2021/04/13 11:44:53;;;;;;;6.55;1.73;;;13.20;55.20;;;;;;5010208;28;20061;-75
2021/04/13 11:47:21;;;;;;;8.82;1.73;;;13.30;56.80;;;;;;5009848;28;20046;-74
2021/04/13 11:49:56;;;;;;;9.52;1.92;;;13.60;56.50;;;;;;5011173;28;20381;-75
2021/04/13 11:52:31;;;;;;;3.50;1.38;;;13.60;55.70;;;;;;5008609;28;20030;-74
2021/04/13 11:54:57;;;;;;;4.43;1.10;;;13.60;55.90;;;;;;5009249;28;20045;-73
2021/04/13 11:57:33;;;;;;;7.95;1.67;;;13.90;54.80;;;;;;5009254;28;20345;-75
2021/04/13 12:00:11;;;;;;;9.30;1.67;;;14.10;55.00;;;;;;5009924;28;20041;-74
2021/04/13 12:02:43;;;;;;;9.25;1.42;;;13.90;54.80;;;;;;5009243;28;20432;-74
2021/04/13 12:05:33;;;;;;;7.03;1.85;;;13.80;54.20;;;;;;5008915;28;20032;-75
2021/04/13 12:08:01;;;;;;;5.65;1.33;;;14.00;57.30;;;;;;5010729;28;20018;-74
2021/04/13 12:10:26;;;;;;;6.03;1.45;;;14.00;59.90;;;;;;5009296;28;20034;-73
2021/04/13 12:12:53;;;;;;;8.30;1.60;;;13.80;56.20;;;;;;5009581;28;20060;-73
2021/04/13 12:15:19;;;;;;;5.18;1.15;;;13.70;54.80;;;;;;5008085;28;20042;-73
2021/04/13 12:17:56;;;;;;;8.27;1.70;;;13.60;54.30;;;;;;5009059;28;20106;-75
2021/04/13 12:20:25;;;;;;;6.47;1.38;;;14.10;54.20;;;;;;5008310;28;20045;-74
2021/04/13 12:23:09;;;;;;;6.53;1.23;;;14.30;53.00;;;;;;5011161;28;20091;-74
2021/04/13 12:25:50;;;;;;;8.65;1.42;;;13.80;52.70;;;;;;5008571;28;20049;-72
2021/04/13 12:28:34;;;;;;;9.90;1.67;;;13.40;53.30;;;;;;5009136;28;20034;-74
2021/04/13 12:31:05;;;;;;;6.20;1.40;;;13.50;52.90;;;;;;5008797;28;20061;-73
2021/04/13 12:33:31;;;;;;;7.95;1.58;;;13.70;54.00;;;;;;5008871;28;20034;-72
2021/04/13 12:35:58;;;;;;;5.28;1.27;;;13.90;55.70;;;;;;5008794;28;20406;-74
2021/04/13 12:38:41;;;;;;;8.52;1.88;;;13.80;58.30;;;;;;5008379;28;20046;-72
2021/04/13 12:41:21;;;;;;;14.95;1.65;;;13.70;60.80;;;;;;5008091;28;20026;-73
2021/04/13 12:43:55;;;;;;;6.32;1.35;;;13.40;61.90;;;;;;5009420;28;20058;-72
2021/04/13 12:46:30;;;;;;;5.15;1.13;;;13.20;64.80;;;;;;5008451;28;20053;-74
2021/04/13 12:48:57;;;;;;;5.10;1.27;;;13.30;63.70;;;;;;5009021;28;20520;-73
2021/04/13 12:51:30;;;;;;;4.97;1.35;;;13.30;63.30;;;;;;5008746;28;20048;-73
2021/04/13 12:54:15;;;;;;;4.88;0.80;;;13.40;61.80;;;;;;5007713;28;20034;-72
2021/04/13 12:56:48;;;;;;;10.55;1.20;;;13.40;61.00;;;;;;5009017;28;20061;-74
2021/04/13 12:59:18;;;;;;;4.47;0.90;;;13.40;61.10;;;;;;5008214;28;20026;-73
2021/04/13 13:01:46;;;;;;;8.20;1.70;;;13.60;60.80;;;;;;5009086;28;20026;-72
2021/04/13 13:04:16;;;;;;;;;;;13.50;60.60;;;;;;5009234;28;20423;-74
2021/04/13 13:06:47;;;;;;;7.07;1.48;;;13.50;59.80;;;;;;5008179;28;19918;-73
2021/04/13 13:09:40;;;;;;;5.70;1.58;;;13.70;59.30;;;;;;5008797;28;20034;-74
2021/04/13 13:12:13;;;;;;;13.35;2.63;;;13.60;58.20;;;;;;5008508;28;20479;-75
2021/04/13 13:14:41;;;;;;;4.38;1.30;;;13.50;57.60;;;;;;5008459;28;20068;-74
2021/04/13 13:17:08;;;;;;;4.10;1.30;;;13.30;56.80;;;;;;5007962;28;20472;-73
2021/04/13 13:19:50;;;;;;;7.93;1.45;;;13.00;55.60;;;;;;5008892;28;20019;-73
2021/04/13 13:22:21;;;;;;;6.13;1.60;;;12.60;55.30;;;;;;5008361;28;20118;-73
2021/04/13 13:24:50;;;;;;;6.45;1.00;;;12.50;55.90;;;;;;5006646;28;20034;-75
2021/04/13 13:27:30;;;;;;;8.38;1.45;;;12.10;56.90;;;;;;5007930;28;20033;-74
2021/04/13 13:29:57;;;;;;;3.15;0.80;;;12.30;59.50;;;;;;5008358;28;20471;-73
2021/04/13 13:32:25;;;;;;;6.93;0.88;;;11.90;63.00;;;;;;5008398;28;20041;-72
2021/04/13 13:34:56;;;;;;;7.70;1.73;;;11.60;67.60;;;;;;5009690;28;20052;-74
2021/04/13 13:37:28;;;;;;;4.28;0.90;;;11.20;70.20;;;;;;5010161;28;20531;-73
2021/04/13 13:39:56;;;;;;;4.53;1.30;;;11.30;74.30;;;;;;5011360;28;20042;-73